createdAt,value
2023-11-01T00:00:24.588Z,1.53
2023-11-01T00:02:51.184Z,1.52
2023-11-01T00:05:17.890Z,1.48
2023-11-01T00:07:44.979Z,1.10
2023-11-01T00:10:11.497Z,0.52
2023-11-01T00:12:38.680Z,0.23
2023-11-01T00:15:06.007Z,0.80
2023-11-01T00:17:33.090Z,1.10
2023-11-01T00:20:00.436Z,0.95
2023-11-01T00:22:27.043Z,1.13
2023-11-01T00:24:53.475Z,0.87
2023-11-01T00:27:19.931Z,0.68
2023-11-01T00:29:46.434Z,0.77
2023-11-01T00:32:13.043Z,0.63
2023-11-01T00:34:39.505Z,0.52
2023-11-01T00:37:06.172Z,0.57
2023-11-01T00:39:32.784Z,0.60
2023-11-01T00:41:59.215Z,0.40
2023-11-01T00:44:25.758Z,0.77
2023-11-01T00:46:52.221Z,0.50
2023-11-01T00:49:18.704Z,0.50
2023-11-01T00:51:45.241Z,0.52
2023-11-01T00:54:11.670Z,0.35
2023-11-01T00:56:38.091Z,0.40
2023-11-01T00:59:04.569Z,0.47
2023-11-01T01:01:31.026Z,0.50
2023-11-01T01:03:57.566Z,0.30
2023-11-01T01:06:24.439Z,0.43
2023-11-01T01:08:50.921Z,0.40
2023-11-01T01:11:19.000Z,0.35
2023-11-01T01:13:45.511Z,0.30
2023-11-01T01:16:12.363Z,0.40
2023-11-01T01:18:40.511Z,0.30
2023-11-01T01:21:07.486Z,0.30
2023-11-01T01:23:33.938Z,0.30
2023-11-01T01:26:00.686Z,0.20
2023-11-01T01:28:27.121Z,0.20
2023-11-01T01:30:53.682Z,0.30
2023-11-01T01:33:20.132Z,0.25
2023-11-01T01:35:46.655Z,0.20
2023-11-01T01:38:13.173Z,0.20
2023-11-01T01:40:39.607Z,0.30
2023-11-01T01:43:24.602Z,0.20
2023-11-01T01:46:11.400Z,0.30
2023-11-01T01:48:38.833Z,0.40
2023-11-01T01:51:05.963Z,0.20
2023-11-01T01:53:33.532Z,0.30
2023-11-01T01:56:00.358Z,0.28
2023-11-01T01:58:31.498Z,0.20
2023-11-01T02:00:58.059Z,0.20
2023-11-01T02:03:24.810Z,0.30
2023-11-01T02:05:52.229Z,0.20
2023-11-01T02:08:18.842Z,0.30
2023-11-01T02:10:45.353Z,0.20
2023-11-01T02:13:12.604Z,0.30
2023-11-01T02:15:43.128Z,0.20
2023-11-01T02:18:10.617Z,0.20
2023-11-01T02:20:41.094Z,0.20
2023-11-01T02:23:11.814Z,0.20
2023-11-01T02:25:38.828Z,0.20
2023-11-01T02:28:05.734Z,0.30
2023-11-01T02:30:32.320Z,0.20
2023-11-01T02:32:58.852Z,0.20
2023-11-01T02:35:25.440Z,0.32
2023-11-01T02:37:51.998Z,0.20
2023-11-01T02:40:18.909Z,0.20
2023-11-01T02:42:46.407Z,0.20
2023-11-01T02:45:13.081Z,0.20
2023-11-01T02:47:40.138Z,0.20
2023-11-01T02:50:07.433Z,0.20
2023-11-01T02:52:34.380Z,0.20
2023-11-01T02:55:06.406Z,0.20
2023-11-01T02:57:35.828Z,0.20
2023-11-01T03:00:07.502Z,0.20
2023-11-01T03:02:34.788Z,0.10
2023-11-01T03:05:01.285Z,0.20
2023-11-01T03:07:27.766Z,0.20
2023-11-01T03:09:54.641Z,0.20
2023-11-01T03:12:21.105Z,0.20
2023-11-01T03:14:47.577Z,0.10
2023-11-01T03:17:14.056Z,0.20
2023-11-01T03:19:40.801Z,0.10
2023-11-01T03:22:07.560Z,0.20
2023-11-01T03:24:34.103Z,0.30
2023-11-01T03:27:01.113Z,0.20
2023-11-01T03:29:27.809Z,0.20
2023-11-01T03:31:54.277Z,0.20
2023-11-01T03:34:20.889Z,0.15
2023-11-01T03:36:47.396Z,0.20
2023-11-01T03:39:14.559Z,0.20
2023-11-01T03:41:41.381Z,0.20
2023-11-01T03:44:08.141Z,0.20
2023-11-01T03:46:34.825Z,0.20
2023-11-01T03:49:01.561Z,0.20
2023-11-01T03:51:28.835Z,0.20
2023-11-01T03:53:55.275Z,0.10
2023-11-01T03:56:22.916Z,0.30
2023-11-01T03:58:49.479Z,0.20
2023-11-01T04:01:17.017Z,0.30
2023-11-01T04:03:43.549Z,0.20
2023-11-01T04:06:10.471Z,0.20
2023-11-01T04:08:38.747Z,0.20
2023-11-01T04:11:05.760Z,0.20
2023-11-01T04:13:35.396Z,0.20
2023-11-01T04:16:01.887Z,0.20
2023-11-01T04:18:28.590Z,0.20
2023-11-01T04:20:55.157Z,0.20
2023-11-01T04:23:21.764Z,0.20
2023-11-01T04:25:48.359Z,0.22
2023-11-01T04:28:14.793Z,0.77
2023-11-01T04:30:41.819Z,0.30
2023-11-01T04:33:08.648Z,0.20
2023-11-01T04:35:35.854Z,0.20
2023-11-01T04:38:02.441Z,0.20
2023-11-01T04:40:29.006Z,0.22
2023-11-01T04:42:55.484Z,0.20
2023-11-01T04:45:21.908Z,0.20
2023-11-01T04:47:48.651Z,0.20
2023-11-01T04:50:16.598Z,0.20
2023-11-01T04:52:43.768Z,0.20
2023-11-01T04:55:13.751Z,0.20
2023-11-01T04:57:40.479Z,0.20
2023-11-01T05:00:10.207Z,0.20
2023-11-01T05:02:37.368Z,0.20
2023-11-01T05:05:07.767Z,0.45
2023-11-01T05:07:34.873Z,0.43
2023-11-01T05:10:01.403Z,0.30
2023-11-01T05:12:29.194Z,0.20
2023-11-01T05:14:55.844Z,0.22
2023-11-01T05:17:22.496Z,0.90
2023-11-01T05:19:48.951Z,2.37
2023-11-01T05:22:15.433Z,1.52
2023-11-01T05:24:44.720Z,0.70
2023-11-01T05:27:11.172Z,2.40
2023-11-01T05:29:37.806Z,5.60
2023-11-01T05:32:04.621Z,9.30
2023-11-01T05:34:31.130Z,11.63
2023-11-01T05:36:57.563Z,14.02
2023-11-01T05:39:24.132Z,13.38
2023-11-01T05:41:52.557Z,12.95
2023-11-01T05:44:20.575Z,12.73
2023-11-01T05:46:47.631Z,9.90
2023-11-01T05:49:14.080Z,8.73
2023-11-01T05:51:40.510Z,11.07
2023-11-01T05:54:07.024Z,10.80
2023-11-01T05:56:33.470Z,9.33
2023-11-01T05:58:59.958Z,8.40
2023-11-01T06:01:26.754Z,15.82
2023-11-01T06:03:57.578Z,83.32
2023-11-01T06:06:27.567Z,651.67
2023-11-01T06:08:54.328Z,335.33
2023-11-01T06:11:21.062Z,147.95
2023-11-01T06:13:47.686Z,136.00
2023-11-01T06:16:14.202Z,96.50
2023-11-01T06:18:40.675Z,73.32
2023-11-01T06:21:07.248Z,73.20
2023-11-01T06:23:37.408Z,36.88
2023-11-01T06:26:04.797Z,0.45
2023-11-01T06:28:31.288Z,42.30
2023-11-01T06:30:57.746Z,60.28
2023-11-01T06:33:24.292Z,62.10
2023-11-01T06:35:50.874Z,65.28
2023-11-01T06:38:17.385Z,50.17
2023-11-01T06:40:43.992Z,47.95
2023-11-01T06:43:10.601Z,50.42
2023-11-01T06:45:37.089Z,27.53
2023-11-01T06:48:03.721Z,41.70
2023-11-01T06:50:30.317Z,40.88
2023-11-01T06:52:56.796Z,30.63
2023-11-01T06:55:23.275Z,25.33
2023-11-01T06:57:50.155Z,24.33
2023-11-01T07:00:16.667Z,20.50
2023-11-01T07:02:43.224Z,19.00
2023-11-01T07:05:09.795Z,16.10
2023-11-01T07:07:36.255Z,13.73
2023-11-01T07:10:03.102Z,14.33
2023-11-01T07:12:29.728Z,13.10
2023-11-01T07:14:56.207Z,11.90
2023-11-01T07:17:25.457Z,9.48
2023-11-01T07:19:51.904Z,8.98
2023-11-01T07:22:18.362Z,6.95
2023-11-01T07:24:44.801Z,5.75
2023-11-01T07:27:11.547Z,4.82
2023-11-01T07:29:38.074Z,4.00
2023-11-01T07:32:04.784Z,1.63
2023-11-01T07:34:31.288Z,2.15
2023-11-01T07:36:57.874Z,3.53
2023-11-01T07:39:24.359Z,2.85
2023-11-01T07:41:50.867Z,2.67
2023-11-01T07:44:18.107Z,0.82
2023-11-01T07:46:44.797Z,1.25
2023-11-01T07:49:12.005Z,1.55
2023-11-01T07:51:38.609Z,1.45
2023-11-01T07:54:05.156Z,1.27
2023-11-01T07:56:31.953Z,1.40
2023-11-01T07:58:59.239Z,1.20
2023-11-01T08:01:25.814Z,1.38
2023-11-01T08:03:52.550Z,1.55
2023-11-01T08:06:19.252Z,1.73
2023-11-01T08:08:45.739Z,1.33
2023-11-01T08:11:12.372Z,1.58
2023-11-01T08:13:38.836Z,1.25
2023-11-01T08:16:05.909Z,1.20
2023-11-01T08:18:32.596Z,1.65
2023-11-01T08:20:59.163Z,1.02
2023-11-01T08:23:25.786Z,3.42
2023-11-01T08:25:52.324Z,2.03
2023-11-01T08:28:19.765Z,0.73
2023-11-01T08:30:46.328Z,1.00
2023-11-01T08:33:12.882Z,0.88
2023-11-01T08:35:39.560Z,1.00
2023-11-01T08:38:09.741Z,0.77
2023-11-01T08:40:36.490Z,2.13
2023-11-01T08:43:03.206Z,0.82
2023-11-01T08:45:29.710Z,8.63
2023-11-01T08:47:56.277Z,7.53
2023-11-01T08:50:22.850Z,3.70
2023-11-01T08:52:49.314Z,3.42
2023-11-01T08:55:17.404Z,1.20
2023-11-01T08:57:47.353Z,2.67
2023-11-01T09:00:15.107Z,1.90
2023-11-01T09:02:41.657Z,0.60
2023-11-01T09:05:08.455Z,0.68
2023-11-01T09:07:35.097Z,0.88
2023-11-01T09:10:02.753Z,2.58
2023-11-01T09:12:29.709Z,0.70
2023-11-01T09:14:56.396Z,1.08
2023-11-01T09:17:22.996Z,0.50
2023-11-01T09:19:49.527Z,0.50
2023-11-01T09:22:16.755Z,0.52
2023-11-01T09:24:43.681Z,0.80
2023-11-01T09:27:10.235Z,0.50
2023-11-01T09:29:36.732Z,1.85
2023-11-01T09:32:03.735Z,0.60
2023-11-01T09:34:30.261Z,0.35
2023-11-01T09:36:56.891Z,0.40
2023-11-01T09:39:23.555Z,2.95
2023-11-01T09:41:53.785Z,10.13
2023-11-01T09:44:20.550Z,15.38
2023-11-01T09:46:48.053Z,15.45
2023-11-01T09:49:15.639Z,11.35
2023-11-01T09:51:43.558Z,6.82
2023-11-01T09:54:14.255Z,7.65
2023-11-01T09:56:45.186Z,10.85
2023-11-01T09:59:12.415Z,6.85
2023-11-01T10:01:39.832Z,1.50
2023-11-01T10:04:07.509Z,0.70
2023-11-01T10:06:35.058Z,5.32
2023-11-01T10:09:01.665Z,9.88
2023-11-01T10:11:31.197Z,6.47
2023-11-01T10:13:58.010Z,0.90
2023-11-01T10:16:24.640Z,2.00
2023-11-01T10:18:51.116Z,1.70
2023-11-01T10:21:17.608Z,0.55
2023-11-01T10:23:44.197Z,0.52
2023-11-01T10:26:10.688Z,0.93
2023-11-01T10:28:40.964Z,0.70
2023-11-01T10:31:07.512Z,1.42
2023-11-01T10:33:34.833Z,0.40
2023-11-01T10:36:02.100Z,0.40
2023-11-01T10:38:29.458Z,0.30
2023-11-01T10:40:58.407Z,0.30
2023-11-01T10:43:25.734Z,0.50
2023-11-01T10:45:52.441Z,0.68
2023-11-01T10:48:19.725Z,0.75
2023-11-01T10:50:46.331Z,0.30
2023-11-01T10:53:13.168Z,0.50
2023-11-01T10:55:40.270Z,0.40
2023-11-01T10:58:07.821Z,0.40
2023-11-01T11:00:38.959Z,0.50
2023-11-01T11:03:15.112Z,0.53
2023-11-01T11:05:43.216Z,0.95
2023-11-01T11:08:10.768Z,0.45
2023-11-01T11:10:40.157Z,0.60
2023-11-01T11:13:09.856Z,0.50
2023-11-01T11:16:00.749Z,0.40
2023-11-01T11:18:29.316Z,0.40
2023-11-01T11:20:57.023Z,0.50
2023-11-01T11:23:41.766Z,0.40
2023-11-01T11:26:08.227Z,0.90
2023-11-01T11:28:49.146Z,9.20
2023-11-01T11:31:22.033Z,12.02
2023-11-01T11:33:48.723Z,5.38
2023-11-01T11:36:16.588Z,1.15
2023-11-01T11:38:53.244Z,11.95
2023-11-01T11:41:19.824Z,1.40
2023-11-01T11:43:59.233Z,0.40
2023-11-01T11:46:27.644Z,9.00
2023-11-01T11:48:54.773Z,5.07
2023-11-01T11:51:21.509Z,9.27
2023-11-01T11:53:48.180Z,9.23
2023-11-01T11:56:17.753Z,0.60
2023-11-01T11:58:44.248Z,0.40
2023-11-01T12:01:23.064Z,0.50
2023-11-01T12:03:49.666Z,0.30
2023-11-01T12:06:16.805Z,0.53
2023-11-01T12:08:43.346Z,0.20
2023-11-01T12:11:10.294Z,0.40
2023-11-01T12:13:55.376Z,2.25
2023-11-01T12:16:27.740Z,0.30
2023-11-01T12:19:07.327Z,0.50
2023-11-01T12:21:33.772Z,0.50
2023-11-01T12:24:00.460Z,0.50
2023-11-01T12:26:28.234Z,0.50
2023-11-01T12:28:55.680Z,0.40
2023-11-01T12:31:22.110Z,0.50
2023-11-01T12:33:48.966Z,1.00
2023-11-01T12:36:28.478Z,0.38
2023-11-01T12:38:55.651Z,0.38
2023-11-01T12:41:25.401Z,0.50
2023-11-01T12:43:51.961Z,0.63
2023-11-01T12:46:19.037Z,0.93
2023-11-01T12:48:47.108Z,0.50
2023-11-01T12:51:13.742Z,0.40
2023-11-01T12:53:40.350Z,0.52
2023-11-01T12:56:06.950Z,0.80
2023-11-01T12:58:33.433Z,0.77
2023-11-01T13:00:59.975Z,0.70
2023-11-01T13:03:26.745Z,0.80
2023-11-01T13:05:53.428Z,0.30
2023-11-01T13:08:20.255Z,0.40
2023-11-01T13:10:46.708Z,0.40
2023-11-01T13:13:13.157Z,0.43
2023-11-01T13:15:39.746Z,1.33
2023-11-01T13:18:06.308Z,1.67
2023-11-01T13:20:33.041Z,1.63
2023-11-01T13:22:59.677Z,1.33
2023-11-01T13:25:26.114Z,1.75
2023-11-01T13:27:52.605Z,1.67
2023-11-01T13:30:19.136Z,0.73
2023-11-01T13:32:45.626Z,0.40
2023-11-01T13:35:12.125Z,1.48
2023-11-01T13:37:38.681Z,0.80
2023-11-01T13:40:05.577Z,0.30
2023-11-01T13:42:32.044Z,0.75
2023-11-01T13:44:58.566Z,1.00
2023-11-01T13:47:26.401Z,1.23
2023-11-01T13:49:53.758Z,1.08
2023-11-01T13:52:20.273Z,1.13
2023-11-01T13:54:46.725Z,1.58
2023-11-01T13:57:13.231Z,1.52
2023-11-01T13:59:39.712Z,0.88
2023-11-01T14:02:06.581Z,0.47
2023-11-01T14:04:34.207Z,0.60
2023-11-01T14:07:00.843Z,0.60
2023-11-01T14:09:27.392Z,0.73
2023-11-01T14:11:54.043Z,0.70
2023-11-01T14:14:21.453Z,0.60
2023-11-01T14:16:48.071Z,0.77
2023-11-01T14:19:14.492Z,0.88
2023-11-01T14:21:41.212Z,1.38
2023-11-01T14:24:08.430Z,0.65
2023-11-01T14:26:35.022Z,0.65
2023-11-01T14:29:01.606Z,0.90
2023-11-01T14:31:28.150Z,0.88
2023-11-01T14:33:54.756Z,0.90
2023-11-01T14:36:21.549Z,0.35
2023-11-01T14:38:48.027Z,0.68
2023-11-01T14:41:15.600Z,0.82
2023-11-01T14:43:43.283Z,0.70
2023-11-01T14:46:09.877Z,0.70
2023-11-01T14:48:36.506Z,0.95
2023-11-01T14:51:04.373Z,1.00
2023-11-01T14:53:32.858Z,0.82
2023-11-01T14:55:59.392Z,0.70
2023-11-01T14:58:26.189Z,0.83
2023-11-01T15:00:52.775Z,0.85
2023-11-01T15:03:19.357Z,0.75
2023-11-01T15:05:45.955Z,0.57
2023-11-01T15:08:12.460Z,0.63
2023-11-01T15:10:38.932Z,0.40
2023-11-01T15:13:05.718Z,0.47
2023-11-01T15:15:32.596Z,0.50
2023-11-01T15:17:59.130Z,0.68
2023-11-01T15:20:27.777Z,0.70
2023-11-01T15:22:54.466Z,0.60
2023-11-01T15:25:20.937Z,0.50
2023-11-01T15:27:47.480Z,0.50
2023-11-01T15:30:16.543Z,0.50
2023-11-01T15:32:43.147Z,0.40
2023-11-01T15:35:09.847Z,0.60
2023-11-01T15:37:36.406Z,0.47
2023-11-01T15:40:05.656Z,0.80
2023-11-01T15:42:33.450Z,0.70
2023-11-01T15:45:00.067Z,0.43
2023-11-01T15:47:26.635Z,0.50
2023-11-01T15:49:53.248Z,0.50
2023-11-01T15:52:19.731Z,0.50
2023-11-01T15:54:46.185Z,0.60
2023-11-01T15:57:14.958Z,0.32
2023-11-01T15:59:42.025Z,0.80
2023-11-01T16:02:08.797Z,0.63
2023-11-01T16:04:35.715Z,0.40
2023-11-01T16:07:02.318Z,0.30
2023-11-01T16:09:28.927Z,0.40
2023-11-01T16:11:55.569Z,0.30
2023-11-01T16:14:22.118Z,0.40
2023-11-01T16:16:48.570Z,0.35
2023-11-01T16:19:15.239Z,0.63
2023-11-01T16:21:45.444Z,0.70
2023-11-01T16:24:15.199Z,0.38
2023-11-01T16:26:42.454Z,0.60
2023-11-01T16:29:08.925Z,0.47
2023-11-01T16:31:36.739Z,0.80
2023-11-01T16:34:03.941Z,0.60
2023-11-01T16:36:31.102Z,0.30
2023-11-01T16:38:57.925Z,0.40
2023-11-01T16:41:24.460Z,0.50
2023-11-01T16:43:50.917Z,0.60
2023-11-01T16:46:17.585Z,0.40
2023-11-01T16:48:44.394Z,0.47
2023-11-01T16:51:11.186Z,0.68
2023-11-01T16:53:37.828Z,0.55
2023-11-01T16:56:04.677Z,0.45
2023-11-01T16:58:31.158Z,0.40
2023-11-01T17:00:57.751Z,0.65
2023-11-01T17:03:24.378Z,0.80
2023-11-01T17:05:50.935Z,0.90
2023-11-01T17:08:17.512Z,0.77
2023-11-01T17:10:44.067Z,0.57
2023-11-01T17:13:10.485Z,0.65
2023-11-01T17:15:37.435Z,0.60
2023-11-01T17:18:04.089Z,0.28
2023-11-01T17:20:30.624Z,0.35
2023-11-01T17:22:57.585Z,1.13
2023-11-01T17:25:33.194Z,0.73
2023-11-01T17:28:02.816Z,0.70
2023-11-01T17:30:32.281Z,0.38
2023-11-01T17:33:00.306Z,0.50
2023-11-01T17:35:26.930Z,0.40
2023-11-01T17:37:53.358Z,0.90
2023-11-01T17:40:21.972Z,0.70
2023-11-01T17:42:48.481Z,3.95
2023-11-01T17:45:15.349Z,4.78
2023-11-01T17:47:43.044Z,1.33
2023-11-01T17:50:11.499Z,0.90
2023-11-01T17:52:43.743Z,2.28
2023-11-01T17:55:13.029Z,0.93
2023-11-01T17:57:40.767Z,4.60
2023-11-01T18:00:08.186Z,19.50
2023-11-01T18:02:53.927Z,23.00
2023-11-01T18:05:29.965Z,18.15
2023-11-01T18:07:56.469Z,18.77
2023-11-01T18:10:22.961Z,18.55
2023-11-01T18:12:49.897Z,23.83
2023-11-01T18:15:20.480Z,25.43
2023-11-01T18:17:47.305Z,26.38
2023-11-01T18:20:17.124Z,27.70
2023-11-01T18:22:43.818Z,41.75
2023-11-01T18:25:28.531Z,38.35
2023-11-01T18:28:00.330Z,45.70
2023-11-01T18:30:26.840Z,41.80
2023-11-01T18:32:53.303Z,52.90
2023-11-01T18:35:25.037Z,43.10
2023-11-01T18:37:52.873Z,31.83
2023-11-01T18:40:24.203Z,44.25
2023-11-01T18:42:55.908Z,40.20
2023-11-01T18:45:22.491Z,28.33
2023-11-01T18:47:53.106Z,30.00
2023-11-01T18:50:19.715Z,26.17
2023-11-01T18:52:46.317Z,46.63
2023-11-01T18:55:13.401Z,29.52
2023-11-01T18:57:40.042Z,25.52
2023-11-01T19:00:10.122Z,23.10
2023-11-01T19:02:36.631Z,1.55
2023-11-01T19:05:05.722Z,1.00
2023-11-01T19:07:33.531Z,5.20
2023-11-01T19:10:00.274Z,1.50
2023-11-01T19:12:30.740Z,4.32
2023-11-01T19:14:57.564Z,7.95
2023-11-01T19:17:24.738Z,1.48
2023-11-01T19:19:51.252Z,3.60
2023-11-01T19:22:18.836Z,9.70
2023-11-01T19:24:45.477Z,7.15
2023-11-01T19:27:18.288Z,3.40
2023-11-01T19:29:50.234Z,7.97
2023-11-01T19:32:16.873Z,5.68
2023-11-01T19:34:43.360Z,2.75
2023-11-01T19:37:10.522Z,1.02
2023-11-01T19:39:37.024Z,13.57
2023-11-01T19:42:03.710Z,22.30
2023-11-01T19:44:30.153Z,9.52
2023-11-01T19:46:56.625Z,18.80
2023-11-01T19:49:23.111Z,18.45
2023-11-01T19:51:49.524Z,12.40
2023-11-01T19:54:16.028Z,16.58
2023-11-01T19:56:42.541Z,14.85
2023-11-01T19:59:10.245Z,1.80
2023-11-01T20:01:36.866Z,11.05
2023-11-01T20:04:03.511Z,13.02
2023-11-01T20:06:30.091Z,10.63
2023-11-01T20:08:56.749Z,1.60
2023-11-01T20:11:23.262Z,9.30
2023-11-01T20:13:49.706Z,8.55
2023-11-01T20:16:24.992Z,2.50
2023-11-01T20:18:54.910Z,8.13
2023-11-01T20:21:21.480Z,2.33
2023-11-01T20:23:47.930Z,14.30
2023-11-01T20:26:14.449Z,21.70
2023-11-01T20:28:41.018Z,20.52
2023-11-01T20:31:07.591Z,19.52
2023-11-01T20:33:34.113Z,15.25
2023-11-01T20:36:02.560Z,17.48
2023-11-01T20:38:29.405Z,16.88
2023-11-01T20:40:55.839Z,15.23
2023-11-01T20:43:22.308Z,16.08
2023-11-01T20:45:48.953Z,4.93
2023-11-01T20:48:15.688Z,5.28
2023-11-01T20:50:42.237Z,10.55
2023-11-01T20:53:08.969Z,6.20
2023-11-01T20:55:35.606Z,8.55
2023-11-01T20:58:04.587Z,7.20
2023-11-01T21:00:31.044Z,6.57
2023-11-01T21:02:57.691Z,1.45
2023-11-01T21:05:24.241Z,5.22
2023-11-01T21:07:50.706Z,6.03
2023-11-01T21:10:18.501Z,5.78
2023-11-01T21:12:46.745Z,5.18
2023-11-01T21:15:13.377Z,3.78
2023-11-01T21:17:41.447Z,3.58
2023-11-01T21:20:09.432Z,3.05
2023-11-01T21:22:35.870Z,2.75
2023-11-01T21:25:02.536Z,3.15
2023-11-01T21:27:29.842Z,3.13
2023-11-01T21:29:56.747Z,2.72
2023-11-01T21:32:23.235Z,13.43
2023-11-01T21:34:49.666Z,11.25
2023-11-01T21:37:16.784Z,12.90
2023-11-01T21:39:44.286Z,10.57
2023-11-01T21:42:13.980Z,8.43
2023-11-01T21:44:41.164Z,6.82
2023-11-01T21:47:09.039Z,11.95
2023-11-01T21:49:35.693Z,24.90
2023-11-01T21:52:19.562Z,19.40
2023-11-01T21:54:46.993Z,17.38
2023-11-01T21:57:13.573Z,21.10
2023-11-01T21:59:40.917Z,1.65
2023-11-01T22:02:16.105Z,9.07
2023-11-01T22:04:46.450Z,16.13
2023-11-01T22:07:16.147Z,0.93
2023-11-01T22:09:42.791Z,10.55
2023-11-01T22:12:09.813Z,11.65
2023-11-01T22:14:39.380Z,8.98
2023-11-01T22:17:08.037Z,9.65
2023-11-01T22:19:39.194Z,0.80
2023-11-01T22:22:12.944Z,7.00
2023-11-01T22:24:40.623Z,3.72
2023-11-01T22:27:08.487Z,0.60
2023-11-01T22:29:38.029Z,13.85
2023-11-01T22:32:05.078Z,12.57
2023-11-01T22:34:31.868Z,15.40
2023-11-01T22:36:58.393Z,15.73
2023-11-01T22:39:41.241Z,2.08
2023-11-01T22:42:12.693Z,10.55
2023-11-01T22:44:39.739Z,14.00
2023-11-01T22:47:06.419Z,2.40
2023-11-01T22:49:32.973Z,19.33
2023-11-01T22:52:01.589Z,21.42
2023-11-01T22:54:28.741Z,22.00
2023-11-01T22:56:55.665Z,23.58
2023-11-01T22:59:22.212Z,23.15
2023-11-01T23:01:51.728Z,16.60
2023-11-01T23:04:19.254Z,12.90
2023-11-01T23:06:46.404Z,1.17
2023-11-01T23:09:13.892Z,13.57
2023-11-01T23:11:40.552Z,13.32
2023-11-01T23:14:08.670Z,10.65
2023-11-01T23:16:39.319Z,10.63
2023-11-01T23:19:12.092Z,2.08
2023-11-01T23:21:39.396Z,8.43
2023-11-01T23:24:09.809Z,9.90
2023-11-01T23:26:49.001Z,8.93
2023-11-01T23:29:19.086Z,8.43
2023-11-01T23:31:46.632Z,8.07
2023-11-01T23:34:33.088Z,1.95
2023-11-01T23:36:59.723Z,6.80
2023-11-01T23:39:36.289Z,2.85
2023-11-01T23:42:02.776Z,5.65
2023-11-01T23:44:33.241Z,4.05
2023-11-01T23:46:59.792Z,4.25
2023-11-01T23:49:53.006Z,4.22
2023-11-01T23:52:19.848Z,3.47
2023-11-01T23:54:50.313Z,2.75
2023-11-01T23:57:17.182Z,2.63
2023-11-01T23:59:44.488Z,1.95
